»·PEaware :: WAT306 KLAS-KASE

WAT306 :: KLAS-KASE

FLIGHT INFORMATION

Flight Status: Arrived
Operator:
Walker Air Transport
More flights by this operator :: More flights under this callsign
Pilot: Ethan S. (29221)
Aircraft: DASSAULT AVIATION FALCON 50
(FA50)
More flights by this aircraft type
Origin: KLAS McCarran Intl
United States
Destination: KASE Aspen-Pitkin Co/Sardy
United States
More flights between these airports :: More routes between these airports
Route: STAAV8 DVC PITMN DBL
File this flight plan on PilotEdge
Remarks:
Altitude:
(Current/Filed)
39,000ft
Speed:
(Current/Filed)
480kts
Departed: 20-Feb-21 09:59 AM
Arrived: 20-Feb-21 11:03 AM
Distance/Time
Traveled:
436nm/1:04
Distance/Time
To Go:
Arrived

Flight Plot

Page will automatically refresh every two minutes.

Flight plan parsing failed; only flown route is shown


Map Options




Map Legend


Flown Route
Filed Route
Departure Airport
Arrival Airport
Navaid (VOR, NDB)
Fix

Horizontal Profiles

Position Reports

Time Latitude Longitude Heading Altitude Ground
Speed
20-Feb-21 09:11 36.080477 -115.170873 125 2173ft 0kts
20-Feb-21 09:12 36.080477 -115.170873 125 2173ft 0kts
20-Feb-21 09:18 36.080477 -115.170873 125 2173ft 0kts
20-Feb-21 09:19 36.080477 -115.170873 125 2173ft 0kts
20-Feb-21 09:20 36.080477 -115.170873 125 2173ft 0kts
20-Feb-21 09:21 36.080477 -115.170873 125 2173ft 0kts
20-Feb-21 09:22 36.080477 -115.170873 125 2173ft 0kts
20-Feb-21 09:23 36.080477 -115.170873 125 2173ft 0kts
20-Feb-21 09:24 36.080913 -115.171383 89 2173ft 0kts
20-Feb-21 09:25 36.080913 -115.171383 89 2173ft 0kts
20-Feb-21 09:26 36.080913 -115.171383 89 2173ft 0kts
20-Feb-21 09:27 36.080913 -115.171383 89 2173ft 0kts
20-Feb-21 09:28 36.080913 -115.171383 89 2173ft 0kts
20-Feb-21 09:29 36.080913 -115.171383 89 2173ft 0kts
20-Feb-21 09:30 36.080913 -115.171383 89 2173ft 0kts
20-Feb-21 09:31 36.080913 -115.171383 89 2173ft 0kts
20-Feb-21 09:32 36.080913 -115.171383 89 2173ft 0kts
20-Feb-21 09:33 36.080913 -115.171383 89 2173ft 0kts
20-Feb-21 09:34 36.080913 -115.171383 89 2173ft 0kts
20-Feb-21 09:34 36.080913 -115.171383 89 2173ft 0kts
20-Feb-21 09:36 36.080913 -115.171383 89 2173ft 0kts
20-Feb-21 09:36 36.080913 -115.171383 89 2173ft 0kts
20-Feb-21 09:37 36.080913 -115.171383 89 2173ft 0kts
20-Feb-21 09:39 36.080913 -115.171383 89 2173ft 0kts
20-Feb-21 09:39 36.080913 -115.171383 89 2173ft 0kts
20-Feb-21 09:41 36.080913 -115.171383 89 2173ft 0kts
20-Feb-21 09:41 36.080913 -115.171383 89 2173ft 0kts
20-Feb-21 09:42 36.080913 -115.171383 89 2173ft 0kts
20-Feb-21 09:43 36.080913 -115.171383 89 2173ft 0kts
20-Feb-21 09:44 36.080913 -115.171383 89 2173ft 0kts
20-Feb-21 09:45 36.080913 -115.171383 89 2173ft 0kts
20-Feb-21 09:46 36.080913 -115.171383 89 2173ft 0kts
20-Feb-21 09:47 36.080913 -115.171383 89 2173ft 0kts
20-Feb-21 09:48 36.080913 -115.171383 89 2173ft 0kts
20-Feb-21 09:49 36.080902 -115.171013 99 2172ft 2kts
20-Feb-21 09:50 36.079868 -115.170172 204 2173ft 5kts
20-Feb-21 09:51 36.078123 -115.170745 130 2181ft 12kts
20-Feb-21 09:52 36.078024 -115.165641 89 2165ft 18kts
20-Feb-21 09:53 36.078027 -115.158564 89 2144ft 18kts
20-Feb-21 09:54 36.078036 -115.152893 89 2122ft 16kts
20-Feb-21 09:55 36.077771 -115.147104 95 2102ft 16kts
20-Feb-21 09:56 36.077532 -115.140805 90 2082ft 18kts
20-Feb-21 09:57 36.077534 -115.134525 90 2063ft 14kts
20-Feb-21 09:58 36.076420 -115.146437 271 2152ft 142kts
20-Feb-21 09:59 36.076150 -115.208235 269 5439ft 225kts
20-Feb-21 10:00 36.091051 -115.275764 307 10590ft 218kts
20-Feb-21 10:01 36.155630 -115.283476 26 14300ft 305kts
20-Feb-21 10:02 36.194656 -115.179332 81 16736ft 369kts
20-Feb-21 10:03 36.197747 -115.044479 91 18803ft 421kts
20-Feb-21 10:04 36.199318 -114.881956 91 18993ft 501kts
20-Feb-21 10:05 36.199878 -114.701056 93 19006ft 508kts
20-Feb-21 10:06 36.197588 -114.531846 93 22074ft 485kts
20-Feb-21 10:07 36.195310 -114.360979 93 24338ft 507kts
20-Feb-21 10:08 36.201172 -114.183452 84 26793ft 514kts
20-Feb-21 10:09 36.222010 -114.007333 83 29087ft 517kts
20-Feb-21 10:10 36.242718 -113.831416 83 31215ft 518kts
20-Feb-21 10:11 36.263246 -113.654735 84 33192ft 520kts
20-Feb-21 10:12 36.283634 -113.476941 84 35155ft 520kts
20-Feb-21 10:13 36.303637 -113.300259 84 36992ft 518kts
20-Feb-21 10:14 36.347173 -113.130525 63 38492ft 518kts
20-Feb-21 10:15 36.408264 -112.966095 64 39024ft 541kts
20-Feb-21 10:16 36.473083 -112.790734 64 39028ft 574kts
20-Feb-21 10:17 36.540660 -112.606833 64 39032ft 596kts
20-Feb-21 10:18 36.610144 -112.416597 64 39038ft 609kts
20-Feb-21 10:19 36.679824 -112.224643 64 39013ft 606kts
20-Feb-21 10:20 36.748778 -112.033528 64 39015ft 602kts
20-Feb-21 10:21 36.816991 -111.843286 64 38985ft 601kts
20-Feb-21 10:22 36.884849 -111.652834 64 38985ft 600kts
20-Feb-21 10:23 36.952313 -111.462293 64 38990ft 601kts
20-Feb-21 10:24 37.019882 -111.270256 65 38969ft 602kts
20-Feb-21 10:25 37.087123 -111.077923 65 38979ft 604kts
20-Feb-21 10:26 37.154193 -110.884831 66 38971ft 606kts
20-Feb-21 10:27 37.221276 -110.690444 65 38976ft 605kts
20-Feb-21 10:28 37.287851 -110.496264 66 39031ft 605kts
20-Feb-21 10:29 37.354026 -110.301972 66 39060ft 606kts
20-Feb-21 10:30 37.419943 -110.107136 66 39068ft 605kts
20-Feb-21 10:31 37.485392 -109.912433 66 39075ft 605kts
20-Feb-21 10:32 37.552949 -109.710076 66 39081ft 606kts
20-Feb-21 10:33 37.622518 -109.500201 66 39087ft 607kts
20-Feb-21 10:34 37.691208 -109.291475 67 39064ft 608kts
20-Feb-21 10:35 37.757818 -109.087617 67 39072ft 607kts
20-Feb-21 10:36 37.838634 -108.899786 44 39074ft 597kts
20-Feb-21 10:37 37.953971 -108.752561 36 39049ft 591kts
20-Feb-21 10:38 38.071417 -108.607690 36 38186ft 577kts
20-Feb-21 10:39 38.183104 -108.469157 35 35247ft 548kts
20-Feb-21 10:40 38.289644 -108.336661 37 32312ft 527kts
20-Feb-21 10:41 38.392225 -108.208562 40 29271ft 507kts
20-Feb-21 10:42 38.489434 -108.086604 41 26733ft 475kts
20-Feb-21 10:43 38.580956 -107.971395 43 24223ft 448kts
20-Feb-21 10:44 38.674765 -107.852930 43 23995ft 496kts
20-Feb-21 10:45 38.775559 -107.724915 43 23999ft 522kts
20-Feb-21 10:46 38.883279 -107.587532 43 24000ft 570kts
20-Feb-21 10:47 38.997874 -107.440524 41 23283ft 541kts
20-Feb-21 10:48 39.104865 -107.302819 42 19900ft 467kts
20-Feb-21 10:49 39.194942 -107.193399 39 19884ft 380kts
20-Feb-21 10:50 39.270692 -107.101207 38 19834ft 341kts
20-Feb-21 10:51 39.334593 -107.008290 71 18306ft 338kts
20-Feb-21 10:52 39.390512 -106.930146 335 16825ft 282kts
20-Feb-21 10:53 39.435312 -107.002533 288 15313ft 248kts
20-Feb-21 10:54 39.476088 -107.080537 343 14040ft 266kts
20-Feb-21 10:55 39.504639 -107.018743 129 14086ft 232kts
20-Feb-21 10:56 39.453591 -106.978825 168 14045ft 221kts
20-Feb-21 10:57 39.391010 -106.949131 165 13182ft 226kts
20-Feb-21 10:58 39.345550 -106.927436 167 12792ft 165kts
20-Feb-21 10:59 39.300903 -106.905967 165 11121ft 156kts
20-Feb-21 11:00 39.259402 -106.886161 161 8882ft 160kts
20-Feb-21 11:01 39.219498 -106.867130 158 7844ft 49kts
20-Feb-21 11:02 39.217293 -106.864864 352 7844ft 7kts

Navigation Log

Ident Type
Flight plan parsing failed, navigation log unavailable